createdAt,value
2022-08-17T00:02:26.650Z,22.69
2022-08-17T00:04:55.135Z,22.67
2022-08-17T00:07:22.419Z,22.71
2022-08-17T00:09:49.002Z,22.68
2022-08-17T00:12:42.177Z,22.66
2022-08-17T00:15:04.948Z,22.65
2022-08-17T00:17:31.552Z,22.66
2022-08-17T00:19:58.125Z,22.69
2022-08-17T00:22:32.279Z,22.63
2022-08-17T00:25:02.230Z,22.62
2022-08-17T00:27:28.818Z,22.58
2022-08-17T00:29:55.409Z,22.62
2022-08-17T00:33:14.626Z,22.59
2022-08-17T00:35:11.171Z,22.59
2022-08-17T00:37:37.853Z,22.62
2022-08-17T00:40:05.282Z,22.58
2022-08-17T00:42:33.672Z,22.46
2022-08-17T00:45:00.332Z,22.51
2022-08-17T00:47:26.928Z,22.55
2022-08-17T00:49:54.024Z,22.65
2022-08-17T00:52:24.920Z,22.64
2022-08-17T00:54:54.059Z,22.61
2022-08-17T00:57:30.087Z,22.56
2022-08-17T01:00:02.259Z,22.48
2022-08-17T01:02:41.206Z,22.46
2022-08-17T01:05:23.737Z,22.44
2022-08-17T01:07:52.747Z,22.43
2022-08-17T01:11:00.533Z,22.44
2022-08-17T01:13:15.245Z,22.47
2022-08-17T01:15:48.520Z,22.42
2022-08-17T01:18:15.956Z,22.46
2022-08-17T01:20:49.001Z,22.45
2022-08-17T01:23:19.871Z,22.41
2022-08-17T01:25:52.358Z,22.46
2022-08-17T01:28:53.029Z,22.08
2022-08-17T01:31:08.498Z,22.23
2022-08-17T01:33:36.133Z,22.25
2022-08-17T01:36:04.318Z,22.27
2022-08-17T01:38:31.976Z,22.31
2022-08-17T01:41:07.518Z,22.38
2022-08-17T01:43:49.293Z,22.47
2022-08-17T01:46:21.923Z,22.42
2022-08-17T01:48:48.751Z,22.49
2022-08-17T01:51:16.051Z,22.49
2022-08-17T01:53:47.509Z,22.45
2022-08-17T01:56:18.271Z,22.45
2022-08-17T01:58:45.708Z,22.39
2022-08-17T02:01:14.752Z,22.39
2022-08-17T02:03:42.058Z,22.41
2022-08-17T02:06:27.621Z,22.44
2022-08-17T02:09:02.755Z,22.32
2022-08-17T02:11:33.255Z,22.24
2022-08-17T02:14:03.696Z,22.20
2022-08-17T02:16:37.047Z,22.24
2022-08-17T02:19:07.179Z,22.11
2022-08-17T02:21:34.088Z,22.17
2022-08-17T02:24:00.783Z,22.19
2022-08-17T02:26:27.471Z,22.21
2022-08-17T02:28:54.336Z,22.12
2022-08-17T02:31:21.365Z,22.12
2022-08-17T02:33:56.564Z,22.14
2022-08-17T02:36:31.317Z,22.10
2022-08-17T02:38:58.743Z,22.11
2022-08-17T02:41:25.545Z,22.09
2022-08-17T02:43:53.205Z,22.15
2022-08-17T02:46:19.802Z,22.14
2022-08-17T02:48:46.548Z,22.14
2022-08-17T02:51:13.163Z,22.14
2022-08-17T02:53:39.741Z,22.10
2022-08-17T02:56:06.682Z,22.04
2022-08-17T02:58:34.920Z,22.04
2022-08-17T03:01:06.690Z,22.01
2022-08-17T03:03:34.754Z,22.17
2022-08-17T03:06:02.253Z,22.28
2022-08-17T03:08:30.260Z,22.31
2022-08-17T03:10:57.269Z,22.27
2022-08-17T03:13:24.190Z,22.30
2022-08-17T03:15:50.963Z,22.28
2022-08-17T03:18:24.730Z,22.24
2022-08-17T03:20:54.850Z,22.20
2022-08-17T03:23:24.201Z,22.22
2022-08-17T03:25:53.760Z,22.23
2022-08-17T03:28:21.413Z,22.20
2022-08-17T03:30:48.162Z,22.10
2022-08-17T03:33:14.828Z,22.16
2022-08-17T03:35:42.141Z,22.08
2022-08-17T03:38:10.734Z,22.09
2022-08-17T03:40:57.892Z,22.09
2022-08-17T03:43:25.590Z,21.97
2022-08-17T03:46:27.624Z,22.00
2022-08-17T03:49:15.727Z,22.13
2022-08-17T03:52:00.967Z,22.15
2022-08-17T03:54:46.080Z,22.14
2022-08-17T03:57:13.308Z,22.18
2022-08-17T03:59:40.899Z,22.23
2022-08-17T04:02:15.662Z,22.26
2022-08-17T04:04:42.724Z,22.27
2022-08-17T04:07:09.890Z,22.36
2022-08-17T04:09:36.672Z,22.43
2022-08-17T04:12:04.984Z,22.48
2022-08-17T04:14:37.875Z,22.51
2022-08-17T04:17:20.296Z,22.71
2022-08-17T04:19:47.051Z,22.76
2022-08-17T04:22:32.137Z,22.71
2022-08-17T04:25:07.612Z,22.82
2022-08-17T04:27:34.308Z,22.85
2022-08-17T04:30:01.694Z,22.80
2022-08-17T04:33:05.010Z,22.87
2022-08-17T04:35:19.073Z,22.97
2022-08-17T04:37:45.764Z,23.01
2022-08-17T04:40:31.110Z,23.01
2022-08-17T04:43:02.861Z,23.18
2022-08-17T04:45:31.998Z,23.26
2022-08-17T04:48:00.357Z,23.31
2022-08-17T04:50:27.633Z,23.48
2022-08-17T04:52:54.359Z,23.52
2022-08-17T04:55:21.380Z,23.60
2022-08-17T04:57:47.992Z,23.64
2022-08-17T05:00:14.850Z,23.66
2022-08-17T05:02:50.604Z,23.70
2022-08-17T05:05:31.170Z,23.74
2022-08-17T05:08:01.003Z,23.86
2022-08-17T05:10:31.155Z,23.99
2022-08-17T05:12:59.830Z,24.12
2022-08-17T05:15:28.082Z,24.29
2022-08-17T05:17:55.215Z,24.50
2022-08-17T05:20:22.786Z,24.65
2022-08-17T05:22:55.597Z,24.84
2022-08-17T05:25:28.179Z,25.04
2022-08-17T05:27:58.985Z,25.17
2022-08-17T05:30:27.695Z,25.28
2022-08-17T05:33:04.792Z,25.42
2022-08-17T05:35:34.027Z,25.48
2022-08-17T05:38:00.959Z,25.69
2022-08-17T05:40:28.376Z,25.89
2022-08-17T05:43:16.538Z,26.02
2022-08-17T05:46:03.398Z,26.07
2022-08-17T05:48:40.035Z,26.16
2022-08-17T05:51:28.333Z,26.50
2022-08-17T05:54:09.827Z,26.63
2022-08-17T05:57:20.894Z,26.82
2022-08-17T05:59:55.778Z,26.91
2022-08-17T06:02:22.298Z,26.96
2022-08-17T06:05:09.860Z,27.03
2022-08-17T06:07:52.565Z,27.16
2022-08-17T06:10:46.555Z,27.56
2022-08-17T06:13:30.221Z,27.88
2022-08-17T06:16:04.632Z,28.67
2022-08-17T06:19:01.140Z,32.57
2022-08-17T06:21:33.821Z,36.53
2022-08-17T06:24:27.515Z,39.46
2022-08-17T06:26:57.466Z,41.10
2022-08-17T06:30:02.483Z,43.23
2022-08-17T06:32:29.622Z,44.32
2022-08-17T06:35:00.475Z,45.44
2022-08-17T06:37:32.832Z,45.40
2022-08-17T06:40:07.440Z,45.40
2022-08-17T06:43:20.075Z,46.68
2022-08-17T06:46:17.028Z,48.44
2022-08-17T06:48:47.258Z,48.84
2022-08-17T06:52:00.717Z,49.83
2022-08-17T06:54:38.914Z,50.40
2022-08-17T06:57:10.481Z,50.71
2022-08-17T07:00:07.109Z,51.20
2022-08-17T07:03:02.460Z,51.55
2022-08-17T07:05:54.446Z,51.61
2022-08-17T07:08:38.379Z,51.51
2022-08-17T07:11:14.418Z,51.55
2022-08-17T07:13:57.462Z,51.16
2022-08-17T07:17:02.768Z,51.61
2022-08-17T07:19:33.053Z,51.83
2022-08-17T07:22:14.264Z,51.24
2022-08-17T07:24:49.015Z,51.32
2022-08-17T07:27:27.588Z,51.72
2022-08-17T07:30:04.697Z,51.91
2022-08-17T07:32:45.946Z,51.94
2022-08-17T07:35:37.629Z,51.39
2022-08-17T07:38:25.748Z,51.56
2022-08-17T07:41:05.351Z,52.13
2022-08-17T07:43:40.884Z,52.94
2022-08-17T07:46:37.916Z,53.06
2022-08-17T07:49:07.460Z,51.48
2022-08-17T07:51:39.845Z,52.17
2022-08-17T07:54:15.508Z,51.75
2022-08-17T07:56:53.113Z,52.00
2022-08-17T07:59:33.460Z,51.87
2022-08-17T08:02:05.983Z,51.84
2022-08-17T08:05:02.106Z,52.16
2022-08-17T08:07:38.319Z,50.62
2022-08-17T08:10:13.126Z,50.17
2022-08-17T08:12:48.022Z,52.51
2022-08-17T08:15:26.119Z,53.29
2022-08-17T08:17:56.463Z,53.29
2022-08-17T08:20:51.660Z,52.58
2022-08-17T08:23:42.962Z,54.29
2022-08-17T08:26:28.354Z,54.78
2022-08-17T08:29:11.355Z,55.52
2022-08-17T08:31:57.654Z,55.56
2022-08-17T08:34:58.909Z,54.51
2022-08-17T08:37:37.863Z,55.15
2022-08-17T08:40:34.889Z,56.08
2022-08-17T08:43:16.436Z,56.88
2022-08-17T08:46:01.720Z,54.98
2022-08-17T08:48:56.895Z,54.59
2022-08-17T08:51:20.181Z,56.13
2022-08-17T08:53:58.520Z,56.10
2022-08-17T08:56:35.665Z,56.79
2022-08-17T08:59:17.248Z,56.63
2022-08-17T09:02:03.528Z,53.97
2022-08-17T09:05:12.749Z,53.31
2022-08-17T09:08:05.711Z,51.91
2022-08-17T09:10:49.653Z,53.44
2022-08-17T09:13:46.359Z,51.02
2022-08-17T09:16:30.731Z,50.37
2022-08-17T09:19:05.006Z,50.77
2022-08-17T09:21:48.446Z,51.93
2022-08-17T09:24:43.728Z,52.89
2022-08-17T09:27:20.718Z,52.17
2022-08-17T09:29:57.890Z,51.45
2022-08-17T09:32:49.905Z,50.69
2022-08-17T09:35:19.839Z,49.40
2022-08-17T09:38:01.671Z,49.24
2022-08-17T09:40:43.434Z,49.80
2022-08-17T09:43:16.666Z,50.52
2022-08-17T09:45:52.045Z,50.41
2022-08-17T09:48:24.500Z,50.39
2022-08-17T09:51:30.326Z,50.77
2022-08-17T09:54:14.722Z,51.00
2022-08-17T09:57:28.422Z,50.67
2022-08-17T10:00:16.724Z,49.12
2022-08-17T10:02:55.665Z,48.45
2022-08-17T10:05:46.552Z,48.40
2022-08-17T10:08:25.753Z,48.53
2022-08-17T10:11:05.513Z,48.29
2022-08-17T10:13:41.285Z,48.46
2022-08-17T10:16:30.426Z,48.52
2022-08-17T10:19:05.315Z,48.80
2022-08-17T10:22:01.050Z,48.45
2022-08-17T10:25:22.115Z,48.33
2022-08-17T10:27:52.959Z,47.87
2022-08-17T10:30:23.668Z,47.66
2022-08-17T10:32:55.326Z,47.49
2022-08-17T10:35:30.172Z,47.40
2022-08-17T10:37:56.702Z,47.38
2022-08-17T10:40:31.075Z,47.44
2022-08-17T10:43:22.786Z,47.06
2022-08-17T10:46:30.877Z,46.85
2022-08-17T10:49:18.515Z,46.59
2022-08-17T10:51:48.204Z,46.36
2022-08-17T10:54:39.352Z,45.80
2022-08-17T10:57:33.913Z,44.84
2022-08-17T11:00:01.662Z,43.63
2022-08-17T11:02:50.028Z,43.61
2022-08-17T11:05:33.041Z,43.89
2022-08-17T11:08:24.471Z,44.17
2022-08-17T11:11:04.952Z,44.33
2022-08-17T11:14:04.620Z,44.18
2022-08-17T11:16:50.543Z,44.29
2022-08-17T11:19:23.239Z,44.52
2022-08-17T11:21:52.710Z,44.41
2022-08-17T11:24:44.751Z,43.86
2022-08-17T11:27:26.649Z,43.56
2022-08-17T11:30:01.856Z,43.25
2022-08-17T11:32:37.286Z,43.21
2022-08-17T11:35:21.458Z,43.08
2022-08-17T11:38:15.863Z,42.85
2022-08-17T11:41:10.401Z,43.05
2022-08-17T11:44:25.360Z,43.11
2022-08-17T11:47:17.915Z,42.91
2022-08-17T11:50:28.136Z,42.79
2022-08-17T11:52:55.089Z,42.81
2022-08-17T11:55:38.201Z,42.66
2022-08-17T11:58:26.088Z,42.57
2022-08-17T12:00:56.578Z,42.38
2022-08-17T12:03:26.599Z,42.16
2022-08-17T12:06:04.348Z,41.97
2022-08-17T12:08:33.910Z,41.78
2022-08-17T12:11:07.417Z,41.35
2022-08-17T12:13:44.657Z,41.11
2022-08-17T12:16:17.558Z,40.81
2022-08-17T12:18:59.622Z,40.70
2022-08-17T12:21:51.411Z,40.69
2022-08-17T12:24:38.280Z,40.40
2022-08-17T12:27:07.244Z,39.83
2022-08-17T12:29:38.708Z,39.93
2022-08-17T12:32:07.132Z,39.23
2022-08-17T12:34:42.658Z,38.39
2022-08-17T12:37:20.599Z,38.26
2022-08-17T12:39:58.784Z,38.32
2022-08-17T12:42:31.972Z,38.52
2022-08-17T12:44:58.820Z,38.72
2022-08-17T12:47:26.371Z,38.90
2022-08-17T12:50:28.495Z,39.14
2022-08-17T12:52:59.732Z,39.14
2022-08-17T12:55:29.334Z,39.14
2022-08-17T12:57:59.793Z,39.00
2022-08-17T13:00:42.905Z,38.87
2022-08-17T13:03:23.097Z,38.85
2022-08-17T13:05:52.772Z,38.87
2022-08-17T13:08:39.138Z,39.08
2022-08-17T13:11:18.548Z,39.01
2022-08-17T13:13:54.750Z,39.22
2022-08-17T13:16:24.886Z,39.40
2022-08-17T13:19:05.830Z,39.13
2022-08-17T13:21:33.620Z,38.93
2022-08-17T13:24:04.338Z,38.85
2022-08-17T13:26:35.303Z,38.84
2022-08-17T13:29:06.302Z,38.71
2022-08-17T13:31:51.811Z,38.82
2022-08-17T13:34:26.728Z,38.63
2022-08-17T13:37:32.519Z,38.58
2022-08-17T13:40:21.860Z,38.53
2022-08-17T13:42:53.595Z,38.35
2022-08-17T13:45:35.368Z,38.28
2022-08-17T13:48:11.834Z,38.20
2022-08-17T13:50:52.350Z,38.13
2022-08-17T13:53:25.324Z,38.30
2022-08-17T13:55:55.349Z,38.35
2022-08-17T13:58:26.067Z,38.35
2022-08-17T14:00:53.122Z,38.41
2022-08-17T14:03:20.548Z,38.25
2022-08-17T14:05:50.083Z,38.30
2022-08-17T14:08:19.884Z,38.33
2022-08-17T14:10:57.492Z,38.35
2022-08-17T14:13:24.189Z,38.11
2022-08-17T14:15:55.686Z,37.98
2022-08-17T14:18:35.665Z,37.87
2022-08-17T14:21:11.137Z,37.85
2022-08-17T14:23:37.837Z,37.75
2022-08-17T14:26:04.861Z,37.69
2022-08-17T14:28:32.152Z,37.70
2022-08-17T14:31:00.374Z,37.66
2022-08-17T14:33:28.847Z,37.58
2022-08-17T14:35:55.943Z,37.49
2022-08-17T14:38:22.651Z,37.49
2022-08-17T14:40:49.411Z,37.39
2022-08-17T14:43:16.026Z,37.39
2022-08-17T14:45:43.641Z,37.35
2022-08-17T14:48:11.059Z,37.36
2022-08-17T14:50:41.583Z,37.34
2022-08-17T14:53:11.050Z,37.23
2022-08-17T14:55:40.578Z,37.15
2022-08-17T14:58:08.804Z,37.01
2022-08-17T15:00:35.507Z,36.67
2022-08-17T15:03:03.117Z,36.58
2022-08-17T15:05:33.874Z,36.57
2022-08-17T15:08:01.752Z,36.58
2022-08-17T15:10:29.529Z,36.54
2022-08-17T15:12:57.856Z,36.55
2022-08-17T15:15:25.166Z,36.24
2022-08-17T15:17:51.814Z,36.16
2022-08-17T15:20:21.393Z,36.20
2022-08-17T15:22:49.823Z,36.26
2022-08-17T15:25:19.009Z,36.21
2022-08-17T15:27:45.750Z,36.15
2022-08-17T15:30:13.329Z,36.09
2022-08-17T15:32:45.769Z,36.04
2022-08-17T15:35:26.870Z,35.97
2022-08-17T15:37:55.674Z,35.88
2022-08-17T15:40:22.248Z,35.79
2022-08-17T15:42:50.401Z,35.82
2022-08-17T15:45:22.585Z,35.76
2022-08-17T15:47:49.391Z,35.62
2022-08-17T15:50:16.185Z,35.62
2022-08-17T15:52:44.918Z,35.60
2022-08-17T15:55:13.723Z,35.54
2022-08-17T15:57:40.796Z,35.57
2022-08-17T16:00:08.858Z,35.52
2022-08-17T16:03:44.961Z,35.46
2022-08-17T16:05:27.217Z,35.42
2022-08-17T16:07:55.237Z,35.26
2022-08-17T16:10:22.901Z,35.25
2022-08-17T16:13:01.940Z,35.26
2022-08-17T16:15:31.181Z,35.05
2022-08-17T16:17:57.763Z,34.98
2022-08-17T16:20:24.350Z,34.99
2022-08-17T16:22:51.220Z,34.92
2022-08-17T16:25:47.153Z,34.84
2022-08-17T16:28:10.881Z,34.77
2022-08-17T16:30:38.293Z,34.75
2022-08-17T16:33:05.878Z,34.71
2022-08-17T16:35:32.578Z,34.53
2022-08-17T16:37:59.223Z,34.51
2022-08-17T16:40:28.161Z,34.47
2022-08-17T16:42:55.971Z,34.40
2022-08-17T16:45:28.182Z,34.29
2022-08-17T16:48:01.534Z,34.33
2022-08-17T16:50:28.205Z,34.21
2022-08-17T16:53:17.900Z,34.12
2022-08-17T16:55:49.423Z,34.02
2022-08-17T16:58:16.119Z,33.96
2022-08-17T17:00:44.254Z,33.90
2022-08-17T17:03:20.012Z,33.78
2022-08-17T17:06:07.211Z,33.67
2022-08-17T17:08:46.687Z,33.59
2022-08-17T17:11:21.610Z,33.43
2022-08-17T17:13:57.886Z,33.45
2022-08-17T17:16:36.222Z,33.34
2022-08-17T17:19:35.204Z,33.23
2022-08-17T17:22:16.527Z,33.00
2022-08-17T17:25:12.125Z,32.98
2022-08-17T17:27:42.887Z,32.85
2022-08-17T17:30:15.133Z,32.72
2022-08-17T17:32:41.719Z,32.61
2022-08-17T17:35:11.485Z,32.49
2022-08-17T17:37:40.432Z,32.36
2022-08-17T17:40:14.521Z,32.21
2022-08-17T17:42:43.919Z,32.05
2022-08-17T17:45:20.372Z,31.89
2022-08-17T17:47:47.698Z,31.72
2022-08-17T17:50:17.466Z,31.60
2022-08-17T17:52:51.252Z,31.45
2022-08-17T17:55:45.689Z,31.33
2022-08-17T17:58:22.767Z,31.16
2022-08-17T18:01:08.427Z,31.01
2022-08-17T18:03:53.904Z,30.92
2022-08-17T18:06:35.514Z,30.80
2022-08-17T18:09:19.416Z,30.68
2022-08-17T18:11:53.943Z,30.57
2022-08-17T18:14:50.947Z,30.38
2022-08-17T18:17:18.330Z,30.26
2022-08-17T18:19:45.306Z,30.18
2022-08-17T18:22:19.458Z,30.07
2022-08-17T18:24:49.547Z,29.90
2022-08-17T18:27:40.791Z,29.70
2022-08-17T18:30:13.152Z,29.65
2022-08-17T18:32:42.490Z,29.43
2022-08-17T18:35:09.131Z,29.35
2022-08-17T18:37:42.712Z,29.26
2022-08-17T18:40:19.575Z,29.21
2022-08-17T18:43:08.390Z,29.15
2022-08-17T18:45:48.168Z,29.02
2022-08-17T18:48:37.942Z,28.91
2022-08-17T18:51:40.952Z,28.77
2022-08-17T18:54:22.374Z,28.64
2022-08-17T18:56:51.807Z,28.41
2022-08-17T18:59:27.544Z,28.39
2022-08-17T19:02:02.031Z,28.30
2022-08-17T19:04:39.719Z,28.15
2022-08-17T19:07:11.025Z,28.12
2022-08-17T19:09:47.638Z,28.03
2022-08-17T19:12:33.286Z,27.93
2022-08-17T19:15:00.951Z,27.93
2022-08-17T19:17:35.438Z,27.83
2022-08-17T19:20:20.054Z,27.74
2022-08-17T19:23:11.369Z,27.71
2022-08-17T19:25:46.545Z,27.69
2022-08-17T19:28:22.562Z,27.62
2022-08-17T19:30:54.913Z,27.56
2022-08-17T19:33:21.794Z,27.49
2022-08-17T19:35:57.507Z,27.45
2022-08-17T19:38:42.462Z,27.40
2022-08-17T19:41:38.572Z,27.38
2022-08-17T19:44:14.995Z,27.35
2022-08-17T19:46:55.940Z,27.31
2022-08-17T19:49:33.461Z,27.29
2022-08-17T19:52:32.602Z,27.21
2022-08-17T19:55:09.719Z,27.17
2022-08-17T19:58:02.720Z,27.13
2022-08-17T20:00:33.711Z,27.04
2022-08-17T20:03:08.057Z,26.99
2022-08-17T20:06:10.945Z,26.97
2022-08-17T20:08:39.518Z,26.97
2022-08-17T20:11:10.709Z,26.91
2022-08-17T20:13:43.550Z,26.82
2022-08-17T20:16:11.247Z,26.84
2022-08-17T20:18:48.808Z,26.73
2022-08-17T20:21:41.990Z,26.68
2022-08-17T20:24:21.866Z,26.65
2022-08-17T20:26:58.183Z,26.48
2022-08-17T20:29:40.233Z,26.55
2022-08-17T20:32:18.824Z,26.57
2022-08-17T20:34:47.874Z,26.55
2022-08-17T20:37:14.551Z,26.59
2022-08-17T20:39:45.948Z,26.57
2022-08-17T20:42:15.335Z,26.49
2022-08-17T20:44:43.274Z,26.35
2022-08-17T20:47:35.689Z,26.33
2022-08-17T20:50:07.158Z,26.34
2022-08-17T20:52:56.312Z,26.34
2022-08-17T20:55:35.438Z,26.26
2022-08-17T20:58:24.693Z,26.15
2022-08-17T21:00:57.397Z,26.07
2022-08-17T21:03:24.148Z,26.05
2022-08-17T21:06:17.604Z,26.01
2022-08-17T21:08:45.868Z,25.99
2022-08-17T21:11:57.080Z,25.99
2022-08-17T21:14:32.800Z,25.94
2022-08-17T21:17:18.502Z,25.88
2022-08-17T21:20:22.030Z,25.83
2022-08-17T21:22:58.569Z,25.82
2022-08-17T21:25:43.195Z,25.80
2022-08-17T21:28:12.844Z,25.80
2022-08-17T21:30:39.409Z,25.73
2022-08-17T21:33:27.144Z,25.72
2022-08-17T21:35:59.554Z,25.72
2022-08-17T21:38:38.034Z,25.69
2022-08-17T21:41:04.882Z,25.70
2022-08-17T21:43:37.489Z,25.64
2022-08-17T21:46:10.808Z,25.59
2022-08-17T21:48:43.071Z,25.57
2022-08-17T21:51:14.969Z,25.62
2022-08-17T21:53:51.433Z,25.50
2022-08-17T21:56:24.898Z,25.59
2022-08-17T21:58:59.583Z,25.58
2022-08-17T22:01:30.173Z,25.56
2022-08-17T22:03:58.680Z,25.46
2022-08-17T22:06:52.647Z,25.52
2022-08-17T22:09:31.937Z,25.46
2022-08-17T22:12:12.372Z,25.40
2022-08-17T22:14:53.272Z,25.40
2022-08-17T22:17:30.189Z,25.38
2022-08-17T22:20:14.480Z,25.35
2022-08-17T22:23:08.747Z,25.29
2022-08-17T22:25:38.330Z,25.20
2022-08-17T22:28:08.152Z,25.19
2022-08-17T22:30:58.749Z,25.24
2022-08-17T22:33:42.375Z,25.31
2022-08-17T22:36:24.656Z,25.31
2022-08-17T22:38:54.796Z,25.27
2022-08-17T22:41:35.847Z,25.23
2022-08-17T22:44:14.084Z,25.23
2022-08-17T22:46:56.157Z,25.15
2022-08-17T22:49:34.170Z,25.11
2022-08-17T22:52:32.152Z,25.05
2022-08-17T22:55:34.887Z,25.01
2022-08-17T22:58:28.022Z,25.02
2022-08-17T23:00:55.065Z,24.99
2022-08-17T23:03:27.993Z,24.99
2022-08-17T23:06:11.870Z,25.02
2022-08-17T23:08:59.537Z,25.01
2022-08-17T23:11:42.872Z,24.97
2022-08-17T23:14:19.089Z,24.97
2022-08-17T23:16:46.297Z,24.98
2022-08-17T23:19:16.469Z,24.98
2022-08-17T23:21:46.668Z,25.10
2022-08-17T23:24:23.482Z,25.23
2022-08-17T23:26:50.661Z,25.48
2022-08-17T23:29:17.297Z,25.59
2022-08-17T23:31:43.919Z,25.68
2022-08-17T23:34:13.331Z,25.72
2022-08-17T23:36:40.331Z,25.88
2022-08-17T23:39:07.574Z,25.99
2022-08-17T23:41:38.987Z,26.05
2022-08-17T23:44:06.997Z,26.17
2022-08-17T23:46:34.634Z,26.14
2022-08-17T23:49:01.473Z,26.17
2022-08-17T23:51:31.643Z,26.17
2022-08-17T23:54:07.967Z,26.04
2022-08-17T23:56:41.927Z,26.00
2022-08-17T23:59:08.521Z,26.01
